Time;durP1;ratioP1;P1;durP2;ratioP2;P2;SDS_P1;SDS_P2;PMS_P1;PMS_P2;Temp;Humidity;BMP_temperature;BMP_pressure;BME280_temperature;BME280_humidity;BME280_pressure;Samples;Min_cycle;Max_cycle;Signal;HPM_P1;HPM_P2
2022/05/08 00:01:00;;;;;;;14.77;2.47;;;;;;;6.27;86.98;102479.28;4993104;28;20199;-46
2022/05/08 00:03:26;;;;;;;13.13;3.05;;;;;;;6.16;87.11;102483.66;4992437;28;20828;-46
2022/05/08 00:05:51;;;;;;;12.38;2.28;;;;;;;6.24;87.95;102486.38;4992562;28;20181;-47
2022/05/08 00:08:17;;;;;;;14.02;3.38;;;;;;;6.17;87.87;102481.00;4992980;28;20595;-48
2022/05/08 00:10:43;;;;;;;14.63;3.05;;;;;;;6.09;88.06;102485.38;4992247;28;20280;-48
2022/05/08 00:13:09;;;;;;;10.25;2.70;;;;;;;6.05;88.29;102488.88;4992909;28;20169;-47
2022/05/08 00:15:35;;;;;;;14.27;2.28;;;;;;;6.10;88.87;102487.16;4992798;28;20182;-45
2022/05/08 00:18:01;;;;;;;15.98;2.88;;;;;;;5.94;88.59;102477.25;4992450;28;20637;-48
2022/05/08 00:20:28;;;;;;;9.25;2.33;;;;;;;6.01;88.83;102494.19;4992455;28;20229;-47
2022/05/08 00:22:53;;;;;;;10.93;2.30;;;;;;;5.80;88.91;102492.22;4992977;28;20240;-47
2022/05/08 00:25:19;;;;;;;20.38;2.83;;;;;;;5.89;89.44;102479.00;4974771;28;20212;-49
2022/05/08 00:27:45;;;;;;;18.60;2.55;;;;;;;5.82;89.86;102482.50;4992025;28;20197;-48
2022/05/08 00:30:11;;;;;;;11.32;2.65;;;;;;;5.83;89.60;102484.25;4992617;28;20197;-46
2022/05/08 00:32:36;;;;;;;13.25;2.90;;;;;;;5.94;89.48;102487.88;4992455;28;20173;-45
2022/05/08 00:35:02;;;;;;;12.68;2.38;;;;;;;5.86;89.93;102476.28;4992558;28;20633;-46
2022/05/08 00:37:27;;;;;;;10.38;2.10;;;;;;;5.82;89.67;102478.06;4991802;28;20170;-45
2022/05/08 00:39:53;;;;;;;9.52;2.75;;;;;;;5.70;90.19;102480.59;4992223;28;20201;-46
2022/05/08 00:42:18;;;;;;;11.85;2.50;;;;;;;5.72;90.49;102479.72;4992515;28;20210;-45
2022/05/08 00:44:43;;;;;;;16.70;2.88;;;;;;;5.85;90.20;102477.19;4992203;28;20602;-45
2022/05/08 00:47:09;;;;;;;17.27;2.67;;;;;;;5.67;89.73;102467.28;4991923;28;20205;-47
2022/05/08 00:49:34;;;;;;;10.75;2.60;;;;;;;5.74;90.22;102477.97;4992027;28;20225;-47
2022/05/08 00:52:04;;;;;;;13.10;2.53;;;;;;;5.82;89.85;102479.84;4992219;28;20652;-46
2022/05/08 00:54:30;;;;;;;12.20;2.50;;;;;;;5.76;89.65;102478.88;4990541;28;20197;-47
2022/05/08 00:56:57;;;;;;;11.15;2.50;;;;;;;5.76;89.91;102476.22;4991517;28;20189;-46
2022/05/08 00:59:24;;;;;;;12.60;2.55;;;;;;;5.76;89.50;102473.56;4992236;28;20264;-47
2022/05/08 01:01:49;;;;;;;18.48;3.25;;;;;;;5.70;89.86;102462.88;4990981;28;20169;-48
2022/05/08 01:04:15;;;;;;;19.58;2.40;;;;;;;5.63;90.19;102471.69;4992204;28;20168;-47
2022/05/08 01:06:40;;;;;;;12.88;2.60;;;;;;;5.59;91.12;102472.53;4991268;28;20255;-47
2022/05/08 01:09:06;;;;;;;11.27;2.25;;;;;;;5.52;90.94;102468.03;4990209;28;20189;-49
2022/05/08 01:11:31;;;;;;;16.90;2.78;;;;;;;5.52;91.32;102484.00;4991931;28;20205;-46
2022/05/08 01:13:57;;;;;;;13.38;2.40;;;;;;;5.52;91.33;102473.34;4991984;28;20176;-47
2022/05/08 01:16:23;;;;;;;13.82;2.63;;;;;;;5.53;91.69;102485.75;4991201;28;20166;-47
2022/05/08 01:18:49;;;;;;;11.10;2.60;;;;;;;5.58;91.34;102481.41;4984818;28;20177;-48
2022/05/08 01:21:17;;;;;;;12.43;2.35;;;;;;;5.64;91.43;102477.88;4989407;28;20274;-47
2022/05/08 01:23:43;;;;;;;13.55;2.85;;;;;;;5.66;91.12;102478.78;4991353;28;20173;-47
2022/05/08 01:26:09;;;;;;;11.40;2.40;;;;;;;5.65;91.08;102488.53;4990226;28;20203;-47
2022/05/08 01:28:35;;;;;;;17.65;3.17;;;;;;;5.65;91.15;102477.03;4991824;28;20641;-47
2022/05/08 01:31:00;;;;;;;14.02;2.83;;;;;;;5.56;91.24;102484.03;4991266;28;20232;-47
2022/05/08 01:33:26;;;;;;;18.35;2.47;;;;;;;5.52;91.46;102482.22;4957634;28;20215;-48
2022/05/08 01:35:52;;;;;;;12.90;2.33;;;;;;;5.62;91.52;102485.88;4991098;28;20191;-46
2022/05/08 01:38:20;;;;;;;15.35;2.75;;;;;;;5.58;91.55;102479.63;4991224;28;20186;-48
2022/05/08 01:40:45;;;;;;;12.30;2.58;;;;;;;5.59;91.18;102485.81;4991561;28;20750;-47
2022/05/08 01:43:12;;;;;;;9.02;2.60;;;;;;;5.58;91.36;102490.25;4991250;28;20181;-46
2022/05/08 01:45:38;;;;;;;10.57;2.38;;;;;;;5.65;91.06;102491.19;4991289;28;20177;-47
2022/05/08 01:48:23;;;;;;;13.45;2.45;;;;;;;5.58;91.26;102489.38;4990711;28;20629;-48
2022/05/08 01:50:54;;;;;;;14.52;3.05;;;;;;;5.47;91.44;102483.97;4991010;28;20235;-48
2022/05/08 01:53:21;;;;;;;16.08;2.80;;;;;;;5.60;91.45;102486.72;4991058;28;20174;-44
2022/05/08 01:55:49;;;;;;;11.25;2.63;;;;;;;5.60;91.79;102487.63;4991518;28;20231;-49
2022/05/08 01:58:16;;;;;;;9.90;2.65;;;;;;;5.57;91.79;102479.59;4991419;28;20641;-47
2022/05/08 02:00:43;;;;;;;14.88;2.53;;;;;;;5.64;91.92;102494.75;4991219;28;20324;-48
2022/05/08 02:03:09;;;;;;;16.30;3.00;;;;;;;5.45;92.56;102492.78;4991372;28;20252;-48
2022/05/08 02:05:34;;;;;;;12.65;2.42;;;;;;;5.46;92.26;102487.47;4990971;28;20176;-44
2022/05/08 02:08:01;;;;;;;15.40;2.97;;;;;;;5.57;92.11;102498.22;4991349;28;20161;-45
2022/05/08 02:10:26;;;;;;;14.88;2.63;;;;;;;5.40;92.71;102494.50;4990977;28;20205;-44
2022/05/08 02:12:52;;;;;;;11.25;2.22;;;;;;;5.35;93.10;102492.69;4991266;28;20639;-46
2022/05/08 02:15:21;;;;;;;14.52;3.10;;;;;;;5.36;92.93;102491.81;4991082;28;20168;-45
2022/05/08 02:17:46;;;;;;;20.10;3.33;;;;;;;5.36;93.21;102499.78;4990991;28;20181;-46
2022/05/08 02:20:12;;;;;;;19.00;4.10;;;;;;;5.36;92.91;102499.78;4991061;28;20197;-44
2022/05/08 02:22:38;;;;;;;10.10;2.47;;;;;;;5.43;92.65;102484.78;4989692;28;20628;-47
2022/05/08 02:25:04;;;;;;;12.65;3.30;;;;;;;5.22;92.78;102480.16;4991284;28;20251;-43
2022/05/08 02:27:41;;;;;;;16.83;2.78;;;;;;;5.34;92.81;102500.66;4990776;28;20709;-43
2022/05/08 02:30:08;;;;;;;16.15;3.20;;;;;;;5.27;92.91;102497.06;4991036;28;20207;-47
2022/05/08 02:32:33;;;;;;;12.68;2.53;;;;;;;5.31;92.88;102495.28;4990840;28;20249;-44
2022/05/08 02:34:59;;;;;;;11.55;2.60;;;;;;;5.29;93.13;102492.66;4991121;28;20260;-45
2022/05/08 02:37:24;;;;;;;16.15;2.75;;;;;;;5.16;93.38;102499.59;4973244;28;20293;-48
2022/05/08 02:39:50;;;;;;;18.70;3.13;;;;;;;5.11;93.71;102500.41;4989621;28;20221;-43
2022/05/08 02:42:15;;;;;;;12.25;2.72;;;;;;;5.13;93.97;102506.63;4990790;28;20644;-45
2022/05/08 02:44:41;;;;;;;12.82;2.67;;;;;;;5.11;94.33;102498.63;4990583;28;20625;-45
2022/05/08 02:47:06;;;;;;;9.90;3.17;;;;;;;5.14;94.18;102504.00;4989260;28;20193;-44
2022/05/08 02:49:32;;;;;;;14.93;3.10;;;;;;;5.16;94.43;102504.03;4990606;28;20232;-47
2022/05/08 02:51:57;;;;;;;14.40;2.90;;;;;;;5.28;94.52;102503.25;4990160;28;20182;-47
2022/05/08 02:54:22;;;;;;;12.90;3.00;;;;;;;5.18;93.97;102507.56;4990016;28;20181;-46
2022/05/08 02:59:32;;;;;;;11.07;2.30;;;;;;;4.91;94.96;102501.06;4990512;28;20204;-48
2022/05/08 03:01:57;;;;;;;15.00;2.83;;;;;;;4.95;95.10;102502.00;4990321;28;20624;-48
2022/05/08 03:04:22;;;;;;;13.05;2.60;;;;;;;4.93;95.05;102504.63;4973116;28;20178;-50
2022/05/08 03:06:48;;;;;;;11.38;2.97;;;;;;;4.83;94.89;102496.53;4989878;28;20224;-48
2022/05/08 03:09:13;;;;;;;14.38;3.17;;;;;;;4.75;95.08;102494.66;4989975;28;20186;-47
2022/05/08 03:11:39;;;;;;;10.80;2.45;;;;;;;4.73;95.67;102500.84;4990456;28;20641;-48
2022/05/08 03:14:04;;;;;;;15.57;2.85;;;;;;;4.85;95.62;102508.94;4990272;28;20170;-48
2022/05/08 03:16:30;;;;;;;10.77;2.35;;;;;;;4.83;95.48;102494.78;4989792;28;20181;-50
2022/05/08 03:18:55;;;;;;;7.38;2.40;;;;;;;4.72;95.29;102488.41;4989175;28;20181;-47
2022/05/08 03:21:22;;;;;;;13.55;3.10;;;;;;;4.74;94.89;102508.84;4989387;28;20236;-48
2022/05/08 03:23:48;;;;;;;10.30;2.55;;;;;;;4.67;94.89;102519.34;4990596;28;20616;-48
2022/05/08 03:26:15;;;;;;;9.30;2.80;;;;;;;4.69;94.78;102505.22;4992873;28;20664;-48
2022/05/08 03:28:41;;;;;;;7.70;2.70;;;;;;;4.62;94.74;102511.31;4993769;28;20780;-48
2022/05/08 03:31:08;;;;;;;9.27;2.42;;;;;;;4.65;95.02;102508.69;4992216;28;20209;-48
2022/05/08 03:33:35;;;;;;;10.55;2.95;;;;;;;4.61;95.35;102500.66;4993060;28;20559;-47
2022/05/08 03:36:02;;;;;;;17.60;3.30;;;;;;;4.54;95.01;102513.84;4993256;28;20166;-50
2022/05/08 03:38:28;;;;;;;13.13;3.05;;;;;;;4.38;95.54;102508.34;4992606;28;20184;-48
2022/05/08 03:40:54;;;;;;;14.80;3.17;;;;;;;4.38;95.84;102508.34;4993488;28;20197;-48
2022/05/08 03:43:21;;;;;;;17.75;3.13;;;;;;;4.35;96.32;102501.19;4993430;28;20296;-47
2022/05/08 03:45:49;;;;;;;16.70;3.20;;;;;;;4.43;96.72;102512.81;4993040;28;20224;-48
2022/05/08 03:48:15;;;;;;;13.43;3.40;;;;;;;4.51;97.06;102518.25;4992738;28;20192;-47
2022/05/08 03:50:41;;;;;;;13.52;3.63;;;;;;;4.57;97.10;102493.53;4959412;28;20205;-48
2022/05/08 03:53:06;;;;;;;15.18;3.03;;;;;;;4.37;97.49;102498.56;4993113;28;20205;-47
2022/05/08 03:55:32;;;;;;;15.73;3.65;;;;;;;4.57;97.58;102499.75;4992786;28;20284;-48
2022/05/08 03:57:57;;;;;;;19.42;4.05;;;;;;;4.64;97.56;102506.03;4992548;28;20551;-48
2022/05/08 04:00:23;;;;;;;20.20;4.40;;;;;;;4.65;97.62;102497.19;4992630;28;20220;-47
2022/05/08 04:02:48;;;;;;;20.05;3.83;;;;;;;4.64;97.27;102492.75;4992853;28;20172;-48
2022/05/08 04:05:14;;;;;;;13.63;3.17;;;;;;;4.76;97.45;102490.25;4992939;28;20166;-47
2022/05/08 04:07:40;;;;;;;13.60;3.30;;;;;;;4.74;97.37;102492.91;4991749;28;20606;-48
2022/05/08 04:10:07;;;;;;;12.13;3.58;;;;;;;4.79;97.31;102490.31;4991416;28;20755;-49
2022/05/08 04:12:33;;;;;;;17.42;3.25;;;;;;;4.85;97.15;102493.00;4992573;28;20165;-50
2022/05/08 04:14:59;;;;;;;13.93;3.55;;;;;;;4.90;96.82;102506.38;4975260;28;20178;-48
2022/05/08 04:17:28;;;;;;;13.23;3.28;;;;;;;4.84;96.90;102498.31;4992018;28;20671;-47
2022/05/08 04:19:55;;;;;;;18.50;3.85;;;;;;;4.84;96.86;102498.31;4992207;28;20684;-47
2022/05/08 04:25:07;;;;;;;17.00;3.90;;;;;;;4.92;96.52;102494.88;4992371;28;20181;-49
2022/05/08 04:27:37;;;;;;;15.88;3.50;;;;;;;4.92;96.60;102502.84;4990253;28;20264;-50
2022/05/08 04:30:04;;;;;;;13.63;3.60;;;;;;;5.12;96.03;102499.53;4992356;28;20221;-48
2022/05/08 04:32:29;;;;;;;14.68;3.40;;;;;;;5.07;95.82;102495.91;4992377;28;20243;-47
2022/05/08 04:34:55;;;;;;;15.73;4.00;;;;;;;5.21;95.57;102502.28;4991823;28;20173;-49
2022/05/08 04:37:20;;;;;;;14.38;3.33;;;;;;;5.17;95.40;102513.75;4991641;28;20255;-48
2022/05/08 04:39:45;;;;;;;20.73;3.97;;;;;;;5.12;95.07;102513.72;4992251;28;20255;-49
2022/05/08 04:42:11;;;;;;;14.73;3.58;;;;;;;5.29;94.93;102513.91;4992106;28;20173;-48
2022/05/08 04:44:37;;;;;;;11.02;3.17;;;;;;;5.49;94.18;102510.56;4992538;28;20170;-48
2022/05/08 04:47:02;;;;;;;22.35;3.60;;;;;;;5.53;93.40;102522.97;4991352;28;20212;-50
2022/05/08 04:49:29;;;;;;;15.75;3.20;;;;;;;5.57;92.57;102516.81;4991686;28;20207;-49
2022/05/08 04:51:54;;;;;;;16.45;3.75;;;;;;;5.69;92.58;102508.09;4992159;28;20185;-47
2022/05/08 04:54:20;;;;;;;15.23;2.97;;;;;;;5.97;91.89;102503.94;4992012;28;20316;-47
2022/05/08 04:56:45;;;;;;;13.57;3.10;;;;;;;5.94;92.08;102514.50;4991636;28;20213;-46
2022/05/08 04:59:11;;;;;;;15.23;3.08;;;;;;;6.11;91.55;102518.22;4974419;28;20181;-48
2022/05/08 05:01:36;;;;;;;15.82;3.22;;;;;;;6.19;90.89;102528.94;4991880;28;20280;-49
2022/05/08 05:04:01;;;;;;;13.35;3.50;;;;;;;6.28;90.21;102514.78;4973584;28;20264;-48
2022/05/08 05:06:31;;;;;;;13.38;3.92;;;;;;;6.39;89.38;102516.63;4991162;28;20688;-51
2022/05/08 05:08:56;;;;;;;15.05;3.85;;;;;;;6.44;89.03;102521.09;4991529;28;20200;-46
2022/05/08 05:11:22;;;;;;;15.15;3.20;;;;;;;6.64;88.44;102511.44;4991669;28;20574;-45
2022/05/08 05:13:47;;;;;;;17.70;3.47;;;;;;;6.68;87.64;102521.22;4991966;28;20173;-50
2022/05/08 05:16:12;;;;;;;17.27;3.55;;;;;;;6.55;87.13;102519.38;4991270;28;20576;-48
2022/05/08 05:18:38;;;;;;;18.58;3.30;;;;;;;6.63;87.21;102516.78;4973786;28;20189;-48
2022/05/08 05:21:03;;;;;;;13.75;3.05;;;;;;;6.91;86.78;102524.00;4991495;28;20197;-48
2022/05/08 05:23:28;;;;;;;10.60;3.03;;;;;;;6.85;86.64;102536.41;4991319;28;20213;-48
2022/05/08 05:25:55;;;;;;;20.00;3.17;;;;;;;6.87;86.25;102527.53;4991479;28;20669;-48
2022/05/08 05:28:21;;;;;;;23.10;4.05;;;;;;;7.14;85.91;102528.53;4990658;28;20177;-47
2022/05/08 05:30:46;;;;;;;18.88;3.80;;;;;;;6.88;85.61;102536.41;4991230;28;20215;-47
2022/05/08 05:33:15;;;;;;;17.33;3.90;;;;;;;7.05;85.90;102540.03;4973912;28;20181;-48
2022/05/08 05:35:43;;;;;;;22.60;3.85;;;;;;;7.03;85.70;102543.59;4991340;28;20639;-47
2022/05/08 05:38:09;;;;;;;14.63;3.25;;;;;;;7.09;85.15;102541.84;4990826;28;20640;-48
2022/05/08 05:40:34;;;;;;;16.90;3.15;;;;;;;7.23;85.05;102540.09;4990766;28;20200;-50
2022/05/08 05:43:00;;;;;;;23.10;3.70;;;;;;;7.33;84.74;102554.38;4991389;28;20367;-46
2022/05/08 05:45:26;;;;;;;14.73;3.00;;;;;;;7.65;84.56;102550.88;4990796;28;20212;-47
2022/05/08 05:47:54;;;;;;;19.00;3.03;;;;;;;7.97;82.97;102563.38;4990704;28;20209;-46
2022/05/08 05:50:23;;;;;;;15.93;3.05;;;;;;;7.72;82.40;102549.09;4991144;28;20214;-47
2022/05/08 05:52:50;;;;;;;15.23;3.90;;;;;;;8.07;82.68;102557.16;4990727;28;20814;-47
2022/05/08 05:55:16;;;;;;;21.92;3.83;;;;;;;8.34;81.22;102550.88;4990975;28;20184;-49
2022/05/08 05:57:42;;;;;;;23.58;3.83;;;;;;;8.54;79.41;102540.19;4990580;28;20170;-47
2022/05/08 06:00:10;;;;;;;16.08;3.45;;;;;;;8.75;79.04;102555.28;4990748;28;20203;-48
2022/05/08 06:02:40;;;;;;;14.85;3.85;;;;;;;8.87;79.01;102549.00;4990451;28;20236;-48
2022/05/08 06:05:06;;;;;;;20.27;3.78;;;;;;;9.36;78.08;102547.88;4990748;28;20186;-48
2022/05/08 06:07:36;;;;;;;20.80;3.63;;;;;;;9.14;77.13;102539.09;4990547;28;20204;-47
2022/05/08 06:10:04;;;;;;;20.13;3.60;;;;;;;9.49;77.25;102545.16;4990414;28;20584;-50
2022/05/08 06:12:30;;;;;;;20.33;3.92;;;;;;;9.81;75.81;102541.34;4990838;28;20178;-49
2022/05/08 06:14:55;;;;;;;20.90;3.42;;;;;;;9.98;74.35;102543.91;4990581;28;20239;-48
2022/05/08 06:17:21;;;;;;;13.05;3.20;;;;;;;9.54;74.73;102550.47;4973025;28;20168;-48
2022/05/08 06:19:46;;;;;;;18.02;3.67;;;;;;;10.15;74.19;102548.25;4990594;28;20233;-49
2022/05/08 06:22:12;;;;;;;19.02;3.13;;;;;;;10.11;74.25;102550.06;4990637;28;20185;-49
2022/05/08 06:24:40;;;;;;;15.10;3.80;;;;;;;10.44;73.55;102540.84;4989409;28;20624;-48
2022/05/08 06:27:06;;;;;;;19.23;3.38;;;;;;;10.09;72.99;102546.50;4989908;28;20631;-48
2022/05/08 06:29:34;;;;;;;17.45;4.07;;;;;;;9.97;74.26;102549.25;4990652;28;20186;-47
2022/05/08 06:32:01;;;;;;;11.70;2.85;;;;;;;10.43;73.08;102549.78;4990646;28;20565;-48
2022/05/08 06:34:26;;;;;;;17.33;3.80;;;;;;;10.55;72.14;102554.13;4990775;28;20228;-46
2022/05/08 06:36:52;;;;;;;16.55;3.55;;;;;;;11.01;71.27;102558.09;4989849;28;20260;-43
2022/05/08 06:39:17;;;;;;;9.13;2.88;;;;;;;11.46;69.69;102556.59;4988248;28;20208;-44
2022/05/08 06:41:43;;;;;;;18.35;4.30;;;;;;;11.40;69.15;102558.47;4991231;28;20173;-48
2022/05/08 06:44:10;;;;;;;14.45;3.38;;;;;;;10.43;69.99;102567.63;4990984;28;20197;-44
2022/05/08 06:46:36;;;;;;;14.45;3.83;;;;;;;10.52;71.10;102579.16;4990983;28;20222;-43
2022/05/08 06:49:06;;;;;;;14.07;3.00;;;;;;;10.89;70.43;102567.16;4991028;28;20166;-45
2022/05/08 06:51:34;;;;;;;17.10;3.45;;;;;;;11.45;69.39;102572.69;4991337;28;20197;-43
2022/05/08 06:53:59;;;;;;;15.88;3.58;;;;;;;10.68;69.04;102573.66;4990841;28;20185;-43
2022/05/08 06:56:26;;;;;;;11.38;2.92;;;;;;;11.22;69.88;102560.50;4991253;28;20652;-47
2022/05/08 07:01:42;;;;;;;17.02;3.53;;;;;;;11.37;68.53;102569.22;4994744;28;20209;-44
2022/05/08 07:04:10;;;;;;;17.67;3.45;;;;;;;11.58;68.91;102566.25;4994791;28;20170;-45
2022/05/08 07:06:37;;;;;;;23.10;3.75;;;;;;;12.21;67.28;102570.66;4994680;28;20235;-44
2022/05/08 07:09:03;;;;;;;15.55;3.55;;;;;;;12.15;66.34;102570.75;4994881;28;20633;-46
2022/05/08 07:11:30;;;;;;;16.60;3.40;;;;;;;12.06;66.99;102573.63;4994798;28;20208;-45
2022/05/08 07:13:56;;;;;;;11.02;3.22;;;;;;;12.66;66.51;102567.16;4994816;28;20189;-45
2022/05/08 07:16:22;;;;;;;13.98;3.25;;;;;;;12.54;66.17;102565.59;4994438;28;20158;-42
2022/05/08 07:18:47;;;;;;;16.67;3.88;;;;;;;12.08;66.71;102561.03;4993754;28;20174;-45
2022/05/08 07:21:13;;;;;;;14.75;3.60;;;;;;;12.04;67.18;102567.38;4994195;28;20714;-49
2022/05/08 07:23:38;;;;;;;19.23;3.47;;;;;;;12.33;64.98;102567.78;4994277;28;20185;-45
2022/05/08 07:26:03;;;;;;;14.77;3.28;;;;;;;12.56;66.08;102563.78;4994369;28;20216;-45
2022/05/08 07:28:29;;;;;;;16.33;3.35;;;;;;;12.64;65.28;102558.22;4994013;28;20257;-44
2022/05/08 07:30:55;;;;;;;14.40;3.42;;;;;;;13.24;64.15;102554.34;4994385;28;20699;-44
2022/05/08 07:33:20;;;;;;;13.30;3.28;;;;;;;12.21;63.82;102569.78;4994680;28;20592;-46
2022/05/08 07:38:31;;;;;;;15.85;3.58;;;;;;;12.85;63.96;102568.56;4994178;28;20177;-45
2022/05/08 07:40:57;;;;;;;14.50;2.83;;;;;;;12.78;63.68;102573.19;4977209;28;20205;-43
2022/05/08 07:43:23;;;;;;;12.65;3.30;;;;;;;13.57;62.58;102575.16;4994647;28;20162;-42
2022/05/08 07:45:49;;;;;;;12.13;2.70;;;;;;;13.86;59.98;102572.69;4993760;28;20186;-44
2022/05/08 07:48:16;;;;;;;13.55;3.05;;;;;;;14.08;61.40;102567.66;4993315;28;20209;-43
2022/05/08 07:50:42;;;;;;;17.17;3.60;;;;;;;13.69;61.19;102579.38;4993502;28;20205;-43
2022/05/08 07:53:07;;;;;;;14.10;3.22;;;;;;;13.73;60.32;102577.47;4993729;28;20253;-42
2022/05/08 07:55:33;;;;;;;10.15;2.88;;;;;;;13.16;61.55;102571.56;4993481;28;20628;-44
2022/05/08 07:57:58;;;;;;;11.52;3.13;;;;;;;13.24;62.13;102583.94;4993463;28;20173;-43
2022/05/08 08:00:24;;;;;;;11.63;3.70;;;;;;;13.48;60.68;102582.56;4993276;28;20747;-42
2022/05/08 08:02:49;;;;;;;9.88;2.88;;;;;;;13.48;59.55;102569.97;4993184;28;20628;-43
2022/05/08 08:05:15;;;;;;;16.05;3.00;;;;;;;14.52;57.73;102573.72;4993602;28;20181;-45
2022/05/08 08:07:40;;;;;;;13.93;2.60;;;;;;;14.65;57.04;102574.31;4991902;28;20208;-46
2022/05/08 08:10:06;;;;;;;15.32;3.10;;;;;;;14.25;57.98;102578.03;4992920;28;20711;-44
2022/05/08 08:12:32;;;;;;;12.23;2.88;;;;;;;14.21;57.92;102582.59;4992046;28;20177;-44
2022/05/08 08:14:59;;;;;;;10.10;2.60;;;;;;;13.59;59.27;102578.69;4975969;28;20623;-44
2022/05/08 08:17:27;;;;;;;8.30;2.45;;;;;;;14.21;58.31;102579.91;4992252;28;20621;-45
2022/05/08 08:19:54;;;;;;;10.13;2.65;;;;;;;14.43;57.48;102588.34;4975160;28;20760;-42
2022/05/08 08:22:21;;;;;;;8.18;2.38;;;;;;;15.07;56.31;102585.72;4976007;28;20192;-44
2022/05/08 08:24:47;;;;;;;14.07;3.42;;;;;;;14.73;57.41;102600.16;4993015;28;20220;-44
2022/05/08 08:27:12;;;;;;;10.13;2.63;;;;;;;15.15;56.41;102594.50;4993085;28;20205;-43
2022/05/08 08:29:38;;;;;;;12.55;3.17;;;;;;;14.46;56.95;102603.56;4992888;28;20209;-45
2022/05/08 08:32:04;;;;;;;14.02;3.17;;;;;;;14.56;58.04;102613.19;4992958;28;20188;-45
2022/05/08 08:34:29;;;;;;;10.77;2.90;;;;;;;14.71;58.28;102610.09;4992793;28;20547;-43
2022/05/08 08:36:54;;;;;;;11.80;2.78;;;;;;;14.71;57.49;102606.50;4992724;28;20166;-44
2022/05/08 08:39:20;;;;;;;13.73;3.25;;;;;;;14.46;56.76;102614.34;4993090;28;20182;-45
2022/05/08 08:42:11;;;;;;;9.52;2.50;;;;;;;14.80;56.93;102615.25;4993132;28;20180;-45
2022/05/08 08:47:43;;;;;;;9.60;2.47;;;;;;;15.26;55.98;102604.94;4992341;28;20568;-42
2022/05/08 08:50:09;;;;;;;10.25;2.83;;;;;;;15.01;56.99;102613.75;4992809;28;20213;-44
2022/05/08 08:52:35;;;;;;;14.45;3.28;;;;;;;15.50;54.63;102605.16;4992516;28;20268;-45
2022/05/08 08:55:02;;;;;;;8.63;2.63;;;;;;;15.27;55.49;102616.66;4992263;28;20281;-43
2022/05/08 08:57:27;;;;;;;10.32;2.50;;;;;;;15.64;53.57;102614.59;4992287;28;20177;-45
2022/05/08 08:59:53;;;;;;;13.82;2.85;;;;;;;15.64;53.36;102608.31;4975261;28;20205;-45
2022/05/08 09:02:20;;;;;;;10.55;2.92;;;;;;;16.01;54.14;102613.47;4992639;28;20185;-42
2022/05/08 09:04:49;;;;;;;9.23;2.63;;;;;;;15.59;53.04;102611.16;4991926;28;20178;-42
2022/05/08 09:07:33;;;;;;;8.85;2.40;;;;;;;15.98;51.24;102616.28;4992250;28;20220;-44
2022/05/08 09:10:10;;;;;;;6.18;2.38;;;;;;;15.99;51.67;102609.94;4991723;28;20217;-43
2022/05/08 09:12:38;;;;;;;11.05;2.30;;;;;;;15.92;53.59;102611.09;4992339;28;20192;-42
2022/05/08 09:15:28;;;;;;;10.70;2.60;;;;;;;16.10;53.17;102615.00;4992074;28;20579;-43
2022/05/08 09:17:57;;;;;;;10.23;2.30;;;;;;;16.31;51.69;102613.41;4991989;28;20181;-41
2022/05/08 09:20:33;;;;;;;7.72;2.40;;;;;;;16.84;51.01;102615.22;4991878;28;20205;-42
2022/05/08 09:23:04;;;;;;;7.07;2.47;;;;;;;16.38;50.94;102623.06;4991831;28;20246;-42
2022/05/08 09:25:44;;;;;;;8.57;2.15;;;;;;;16.58;50.65;102605.28;4991933;28;20530;-43
2022/05/08 09:28:15;;;;;;;8.25;2.28;;;;;;;16.27;50.89;102609.91;4991649;28;20193;-41
2022/05/08 09:30:56;;;;;;;8.63;2.17;;;;;;;16.25;49.79;102619.91;4974388;28;20528;-44
2022/05/08 09:33:48;;;;;;;11.93;2.50;;;;;;;16.71;50.35;102617.44;4992060;28;20180;-43
2022/05/08 09:36:24;;;;;;;8.02;2.28;;;;;;;16.94;50.79;102622.03;4987242;28;20192;-43
2022/05/08 09:38:57;;;;;;;5.80;2.08;;;;;;;16.71;48.00;102622.84;4991298;28;20173;-42
2022/05/08 09:41:29;;;;;;;6.28;2.05;;;;;;;16.79;47.37;102628.88;4991840;28;20201;-43
2022/05/08 09:44:08;;;;;;;8.30;2.40;;;;;;;15.64;49.50;102630.81;4974190;28;20173;-41
2022/05/08 09:46:44;;;;;;;8.82;2.25;;;;;;;16.30;50.75;102627.84;4991720;28;20262;-42
2022/05/08 09:49:23;;;;;;;6.90;2.17;;;;;;;16.25;49.26;102628.00;4991338;28;20629;-41
2022/05/08 09:51:50;;;;;;;7.55;2.33;;;;;;;17.01;48.60;102622.69;4991565;28;20652;-42
2022/05/08 09:54:17;;;;;;;7.30;2.20;;;;;;;16.74;48.33;102625.44;4991489;28;20320;-43
2022/05/08 09:56:44;;;;;;;6.38;2.00;;;;;;;15.69;49.47;102627.09;4991447;28;20180;-39
2022/05/08 09:59:11;;;;;;;7.32;1.95;;;;;;;16.56;49.04;102620.69;4992080;28;20188;-47
2022/05/08 10:01:41;;;;;;;8.75;2.47;;;;;;;16.74;48.57;102625.44;4973526;28;20189;-46
2022/05/08 10:04:07;;;;;;;5.95;2.20;;;;;;;16.98;48.25;102628.25;4991573;28;20206;-47
2022/05/08 10:06:36;;;;;;;6.50;1.88;;;;;;;16.75;49.21;102631.72;4991202;28;20588;-47
2022/05/08 10:14:35;;;;;;;7.22;1.90;;;;;;;16.77;47.05;102619.94;4991342;28;20169;-44
2022/05/08 10:17:01;;;;;;;7.10;1.92;;;;;;;16.70;47.97;102615.66;4991051;28;20165;-44
2022/05/08 10:19:26;;;;;;;5.35;1.70;;;;;;;16.25;47.55;102617.19;4990821;28;20178;-45
2022/05/08 10:22:05;;;;;;;5.13;1.60;;;;;;;16.34;45.87;102620.53;4973906;28;20580;-46
2022/05/08 10:24:30;;;;;;;5.25;1.70;;;;;;;15.41;46.54;102626.13;4990706;28;20169;-45
2022/05/08 10:27:28;;;;;;;7.07;1.90;;;;;;;16.40;46.51;102617.63;4990681;28;20201;-46
2022/05/08 10:29:54;;;;;;;6.95;2.00;;;;;;;16.12;46.65;102625.78;4990824;28;20710;-45
2022/05/08 10:32:31;;;;;;;5.30;1.52;;;;;;;16.38;45.07;102619.50;4991250;28;20177;-46
2022/05/08 10:35:03;;;;;;;4.85;1.60;;;;;;;14.98;45.13;102616.56;4976268;28;20182;-45
2022/05/08 10:37:29;;;;;;;5.05;1.52;;;;;;;15.33;45.93;102609.25;4994989;28;20301;-44
2022/05/08 10:39:55;;;;;;;3.75;1.60;;;;;;;15.35;45.63;102620.91;4993695;28;20197;-47
2022/05/08 10:42:33;;;;;;;6.85;1.77;;;;;;;15.08;46.50;102614.47;4994945;28;20172;-47
2022/05/08 10:45:00;;;;;;;5.03;1.52;;;;;;;15.38;46.27;102615.41;4995130;28;20223;-45
2022/05/08 10:47:36;;;;;;;6.07;1.77;;;;;;;15.14;47.25;102619.69;4994194;28;20206;-46
2022/05/08 10:50:09;;;;;;;4.38;1.83;;;;;;;15.90;45.65;102617.47;4994828;28;20189;-46
2022/05/08 10:52:45;;;;;;;9.35;2.15;;;;;;;15.33;47.90;102611.09;4977235;28;20529;-45
2022/05/08 10:55:16;;;;;;;7.78;2.00;;;;;;;15.56;48.63;102615.78;4994603;28;20267;-46
2022/05/08 10:57:44;;;;;;;4.95;1.60;;;;;;;15.50;45.39;102611.44;4994513;28;20150;-47
2022/05/08 11:00:20;;;;;;;6.72;2.10;;;;;;;15.22;47.55;102617.69;4994534;28;20344;-47
2022/05/08 11:02:52;;;;;;;5.07;1.75;;;;;;;15.15;47.06;102615.19;4994644;28;20200;-45
2022/05/08 11:05:22;;;;;;;2.58;1.55;;;;;;;15.29;46.75;102621.06;4994523;28;20723;-45
2022/05/08 11:07:52;;;;;;;4.55;1.67;;;;;;;15.27;45.68;102611.25;4994161;28;20217;-45
2022/05/08 11:10:21;;;;;;;4.28;1.33;;;;;;;15.30;47.70;102619.25;4993847;28;20212;-45
2022/05/08 11:13:03;;;;;;;5.10;1.60;;;;;;;15.11;46.83;102608.09;4994575;28;20271;-47
2022/05/08 11:15:34;;;;;;;5.72;1.90;;;;;;;15.45;47.00;102614.28;4976540;28;20264;-45
2022/05/08 11:18:23;;;;;;;6.50;1.55;;;;;;;15.47;46.57;102611.53;4994079;28;20240;-46
2022/05/08 11:20:59;;;;;;;5.47;1.50;;;;;;;15.09;45.70;102620.78;4993885;28;20197;-47
2022/05/08 11:23:27;;;;;;;4.57;1.83;;;;;;;15.02;47.32;102620.94;4994215;28;20169;-47
2022/05/08 11:25:58;;;;;;;7.72;1.83;;;;;;;14.87;46.25;102625.88;4994075;28;20169;-48
2022/05/08 11:28:28;;;;;;;4.72;1.40;;;;;;;15.11;46.79;102617.09;4993773;28;20181;-50
2022/05/08 11:30:55;;;;;;;5.40;1.70;;;;;;;15.09;47.61;102620.78;4994197;28;20209;-47
2022/05/08 11:36:23;;;;;;;5.70;1.63;;;;;;;15.10;47.31;102609.03;4994246;28;20271;-47
2022/05/08 11:38:55;;;;;;;3.92;1.52;;;;;;;14.79;47.40;102610.78;4993271;28;20176;-45
2022/05/08 11:41:25;;;;;;;7.18;1.52;;;;;;;14.91;46.72;102611.38;4993858;28;20699;-47
2022/05/08 11:43:52;;;;;;;3.53;1.27;;;;;;;15.11;46.30;102611.72;4992192;28;20259;-48
2022/05/08 11:46:38;;;;;;;4.63;1.63;;;;;;;15.33;46.35;102613.78;4992261;28;20197;-46
2022/05/08 11:49:23;;;;;;;6.68;1.58;;;;;;;15.19;47.42;102617.75;4993413;28;20586;-46